Abis Cuxhaven — PBYB — position and weather

sailwx.info

Track history (hours):
 
Tides and Currents Weather Stations Pressure Air Temp Water Temp Dewpoint Dewpoint Depression Visibility Wind Speed Wind Dir Waves Ship Positions

Abis Cuxhaven

Last reported at 2016-Apr-30 08:33 UTC. Time now 2016-Apr-30 09:01 UTC.
Position N 53°58' E 008°02'.

Length 114 m; draft 4 m.

Type: Cargo ship. MMSI: 246670000.

Date/timePositionNaut miles runAvg speedWind from/ knotsBaromVisibWave heightAir tempDewpointWater temp
2016-Apr-30 08:33N 53°58' E 008°02'1211.8
2016-Apr-30 07:33N 53°55' E 007°42'1211.7
2016-Apr-30 06:33N 53°53' E 007°23'1111.0
2016-Apr-30 05:33N 53°50' E 007°05'1010.3
2016-Apr-30 04:34N 53°48' E 006°48'10 9.9
2016-Apr-30 03:33N 53°45' E 006°32'10 9.9
2016-Apr-30 02:33N 53°43' E 006°16'1010.2
2016-Apr-30 01:33N 53°40' E 005°59'1010.4
2016-Apr-30 00:33N 53°36' E 005°43'1010.3
2016-Apr-29 23:33N 53°34' E 005°26'1010.3
2016-Apr-29 22:34N 53°30' E 005°10'3310.0
2016-Apr-29 19:12N 53°07' E 004°29'1710.1
2016-Apr-29 17:29N 52°52' E 004°17'9 9.8
2016-Apr-29 16:31N 52°44' E 004°07'12 9.9
2016-Apr-29 15:18N 52°36' E 003°53'29 7.6
2016-Apr-29 11:32N 52°12' E 003°27'8 8.2
2016-Apr-29 10:32N 52°04' E 003°25'10 9.6
2016-Apr-29 09:32N 51°54' E 003°23'18 8.3
2016-Apr-29 07:25N 51°37' E 003°22'1113.2
2016-Apr-29 06:34N 51°27' E 003°32'1110.7
2016-Apr-29 05:34N 51°21' E 003°47'5 4.6
2016-Apr-29 04:33N 51°17' E 003°50'9 8.8
2016-Apr-29 03:34N 51°09' E 003°47'4 3.5
2016-Apr-29 02:32N 51°05' E 003°45'0 0.0
2016-Apr-29 01:32N 51°05' E 003°45'0 0.0
2016-Apr-29 00:32N 51°05' E 003°45'0 0.0
2016-Apr-28 23:32N 51°05' E 003°45'0 0.0
2016-Apr-28 22:32N 51°05' E 003°45'0 0.0
2016-Apr-28 21:33N 51°05' E 003°45'0 0.0
2016-Apr-28 20:32N 51°05' E 003°45'0 0.0
2016-Apr-28 19:33N 51°05' E 003°45'0 0.0
2016-Apr-28 18:32N 51°05' E 003°45'0 0.0
2016-Apr-28 17:32N 51°05' E 003°45'0 0.0
2016-Apr-28 16:32N 51°05' E 003°45'0 0.0
2016-Apr-28 15:32N 51°05' E 003°45'0 0.0
2016-Apr-28 14:29N 51°05' E 003°45'0 0.0
2016-Apr-28 13:32N 51°05' E 003°45'0 0.0
2016-Apr-28 12:29N 51°05' E 003°45'0 0.0
2016-Apr-28 11:32N 51°05' E 003°45'0 0.0
2016-Apr-28 10:24N 51°05' E 003°45'0 0.0
2016-Apr-28 09:30N 51°05' E 003°45'0 0.0
2016-Apr-28 08:32N 51°05' E 003°45'0 0.0
2016-Apr-28 07:32N 51°05' E 003°45'0 0.0
2016-Apr-28 06:26N 51°05' E 003°45'0 0.0
2016-Apr-28 05:32N 51°05' E 003°45'0 0.0
2016-Apr-28 04:32N 51°05' E 003°45'0 0.0
2016-Apr-28 03:29N 51°05' E 003°45'0 0.0
2016-Apr-28 02:32N 51°05' E 003°45'0 0.0
2016-Apr-28 01:32N 51°05' E 003°45'0 0.0
2016-Apr-28 00:32N 51°05' E 003°45'0 0.0
2016-Apr-27 23:32N 51°05' E 003°45'0 0.0
2016-Apr-27 22:32N 51°05' E 003°45'0 0.0
2016-Apr-27 21:32N 51°05' E 003°45'0 0.0
2016-Apr-27 20:26N 51°05' E 003°45'0 0.0
2016-Apr-27 19:32N 51°05' E 003°45'0 0.0
2016-Apr-27 18:32N 51°05' E 003°45'1 1.1
2016-Apr-27 17:34N 51°06' E 003°45'6 6.4
2016-Apr-27 16:33N 51°12' E 003°48'6 6.0
2016-Apr-27 15:34N 51°18' E 003°50'2 2.0
2016-Apr-27 14:33N 51°20' E 003°49'3 2.5
2016-Apr-27 13:33N 51°22' E 003°45'5 5.4
2016-Apr-27 12:33N 51°25' E 003°39'9 8.7
2016-Apr-27 11:33N 51°30' E 003°28'7 7.0
2016-Apr-27 10:33N 51°36' E 003°22'6 5.9
2016-Apr-27 09:33N 51°41' E 003°17'85 6.9
2016-Apr-26 21:11N 53°00' E 004°07'6 9.0
2016-Apr-26 20:32N 53°04' E 004°15'9 9.0
2016-Apr-26 19:33N 53°11' E 004°24'52 8.6
2016-Apr-26 13:33N 53°59' E 004°54'10 9.3
2016-Apr-26 12:26N 54°09' E 005°02'8 9.5
2016-Apr-26 11:33N 54°16' E 005°11'277 9.7
2016-Apr-25 07:05N 57°47' E 010°31'5 9.6
2016-Apr-25 06:33N 57°47' E 010°40'10 9.6
2016-Apr-25 05:33N 57°43' E 010°56'1010.0
2016-Apr-25 04:33N 57°36' E 011°10'1010.0
2016-Apr-25 03:33N 57°29' E 011°24'1010.0
2016-Apr-25 02:33N 57°20' E 011°31'1010.0
2016-Apr-25 01:33N 57°11' E 011°38'1010.3
2016-Apr-25 00:33N 57°01' E 011°44'1110.5
2016-Apr-24 23:33N 56°51' E 011°50'1010.5
2016-Apr-24 22:33N 56°41' E 011°56'29 9.7
2016-Apr-24 19:33N 56°14' E 012°15'1110.6
2016-Apr-24 18:33N 56°08' E 012°31'1010.4
2016-Apr-24 17:33N 55°59' E 012°42'1010.0
2016-Apr-24 16:33N 55°50' E 012°43'1010.1
2016-Apr-24 15:33N 55°40' E 012°42'1110.7
2016-Apr-24 14:33N 55°29' E 012°43'1010.3
2016-Apr-24 13:34N 55°19' E 012°42'1010.2
2016-Apr-24 12:33N 55°16' E 012°60'3110.1
2016-Apr-24 09:30N 55°14' E 013°54'1010.7
2016-Apr-24 08:33N 55°14' E 014°12'10 9.8
2016-Apr-24 07:33N 55°20' E 014°25'1110.7
2016-Apr-24 06:33N 55°28' E 014°38'1110.5
2016-Apr-24 05:33N 55°33' E 014°54'1010.4
2016-Apr-24 04:33N 55°38' E 015°10'1110.5
2016-Apr-24 03:33N 55°44' E 015°26'  
Track history (hours):
 
Tides and Currents Weather Stations Pressure Air Temp Water Temp Dewpoint Dewpoint Depression Visibility Wind Speed Wind Dir Waves Ship Positions

Abis Cuxhaven

Last reported at 2016-Apr-30 08:33 UTC. Time now 2016-Apr-30 09:01 UTC.
Position N 53°58' E 008°02'.

Length 114 m; draft 4 m.

Type: Cargo ship. MMSI: 246670000.

Date/timePositionNaut miles runAvg speedWind from/ knotsBaromVisibWave heightAir tempDewpointWater temp
2016-Apr-30 08:33N 53°58' E 008°02'1211.8
2016-Apr-30 07:33N 53°55' E 007°42'1211.7
2016-Apr-30 06:33N 53°53' E 007°23'1111.0
2016-Apr-30 05:33N 53°50' E 007°05'1010.3
2016-Apr-30 04:34N 53°48' E 006°48'10 9.9
2016-Apr-30 03:33N 53°45' E 006°32'10 9.9
2016-Apr-30 02:33N 53°43' E 006°16'1010.2
2016-Apr-30 01:33N 53°40' E 005°59'1010.4
2016-Apr-30 00:33N 53°36' E 005°43'1010.3
2016-Apr-29 23:33N 53°34' E 005°26'1010.3
2016-Apr-29 22:34N 53°30' E 005°10'3310.0
2016-Apr-29 19:12N 53°07' E 004°29'1710.1
2016-Apr-29 17:29N 52°52' E 004°17'9 9.8
2016-Apr-29 16:31N 52°44' E 004°07'12 9.9
2016-Apr-29 15:18N 52°36' E 003°53'29 7.6
2016-Apr-29 11:32N 52°12' E 003°27'8 8.2
2016-Apr-29 10:32N 52°04' E 003°25'10 9.6
2016-Apr-29 09:32N 51°54' E 003°23'18 8.3
2016-Apr-29 07:25N 51°37' E 003°22'1113.2
2016-Apr-29 06:34N 51°27' E 003°32'1110.7
2016-Apr-29 05:34N 51°21' E 003°47'5 4.6
2016-Apr-29 04:33N 51°17' E 003°50'9 8.8
2016-Apr-29 03:34N 51°09' E 003°47'4 3.5
2016-Apr-29 02:32N 51°05' E 003°45'0 0.0
2016-Apr-29 01:32N 51°05' E 003°45'0 0.0
2016-Apr-29 00:32N 51°05' E 003°45'0 0.0
2016-Apr-28 23:32N 51°05' E 003°45'0 0.0
2016-Apr-28 22:32N 51°05' E 003°45'0 0.0
2016-Apr-28 21:33N 51°05' E 003°45'0 0.0
2016-Apr-28 20:32N 51°05' E 003°45'0 0.0
2016-Apr-28 19:33N 51°05' E 003°45'0 0.0
2016-Apr-28 18:32N 51°05' E 003°45'0 0.0
2016-Apr-28 17:32N 51°05' E 003°45'0 0.0
2016-Apr-28 16:32N 51°05' E 003°45'0 0.0
2016-Apr-28 15:32N 51°05' E 003°45'0 0.0
2016-Apr-28 14:29N 51°05' E 003°45'0 0.0
2016-Apr-28 13:32N 51°05' E 003°45'0 0.0
2016-Apr-28 12:29N 51°05' E 003°45'0 0.0
2016-Apr-28 11:32N 51°05' E 003°45'0 0.0
2016-Apr-28 10:24N 51°05' E 003°45'0 0.0
2016-Apr-28 09:30N 51°05' E 003°45'0 0.0
2016-Apr-28 08:32N 51°05' E 003°45'0 0.0
2016-Apr-28 07:32N 51°05' E 003°45'0 0.0
2016-Apr-28 06:26N 51°05' E 003°45'0 0.0
2016-Apr-28 05:32N 51°05' E 003°45'0 0.0
2016-Apr-28 04:32N 51°05' E 003°45'0 0.0
2016-Apr-28 03:29N 51°05' E 003°45'0 0.0
2016-Apr-28 02:32N 51°05' E 003°45'0 0.0
2016-Apr-28 01:32N 51°05' E 003°45'0 0.0
2016-Apr-28 00:32N 51°05' E 003°45'0 0.0
2016-Apr-27 23:32N 51°05' E 003°45'0 0.0
2016-Apr-27 22:32N 51°05' E 003°45'0 0.0
2016-Apr-27 21:32N 51°05' E 003°45'0 0.0
2016-Apr-27 20:26N 51°05' E 003°45'0 0.0
2016-Apr-27 19:32N 51°05' E 003°45'0 0.0
2016-Apr-27 18:32N 51°05' E 003°45'1 1.1
2016-Apr-27 17:34N 51°06' E 003°45'6 6.4
2016-Apr-27 16:33N 51°12' E 003°48'6 6.0
2016-Apr-27 15:34N 51°18' E 003°50'2 2.0
2016-Apr-27 14:33N 51°20' E 003°49'3 2.5
2016-Apr-27 13:33N 51°22' E 003°45'5 5.4
2016-Apr-27 12:33N 51°25' E 003°39'9 8.7
2016-Apr-27 11:33N 51°30' E 003°28'7 7.0
2016-Apr-27 10:33N 51°36' E 003°22'6 5.9
2016-Apr-27 09:33N 51°41' E 003°17'85 6.9
2016-Apr-26 21:11N 53°00' E 004°07'6 9.0
2016-Apr-26 20:32N 53°04' E 004°15'9 9.0
2016-Apr-26 19:33N 53°11' E 004°24'52 8.6
2016-Apr-26 13:33N 53°59' E 004°54'10 9.3
2016-Apr-26 12:26N 54°09' E 005°02'8 9.5
2016-Apr-26 11:33N 54°16' E 005°11'277 9.7
2016-Apr-25 07:05N 57°47' E 010°31'5 9.6
2016-Apr-25 06:33N 57°47' E 010°40'10 9.6
2016-Apr-25 05:33N 57°43' E 010°56'1010.0
2016-Apr-25 04:33N 57°36' E 011°10'1010.0
2016-Apr-25 03:33N 57°29' E 011°24'1010.0
2016-Apr-25 02:33N 57°20' E 011°31'1010.0
2016-Apr-25 01:33N 57°11' E 011°38'1010.3
2016-Apr-25 00:33N 57°01' E 011°44'1110.5
2016-Apr-24 23:33N 56°51' E 011°50'1010.5
2016-Apr-24 22:33N 56°41' E 011°56'29 9.7
2016-Apr-24 19:33N 56°14' E 012°15'1110.6
2016-Apr-24 18:33N 56°08' E 012°31'1010.4
2016-Apr-24 17:33N 55°59' E 012°42'1010.0
2016-Apr-24 16:33N 55°50' E 012°43'1010.1
2016-Apr-24 15:33N 55°40' E 012°42'1110.7
2016-Apr-24 14:33N 55°29' E 012°43'1010.3
2016-Apr-24 13:34N 55°19' E 012°42'1010.2
2016-Apr-24 12:33N 55°16' E 012°60'3110.1
2016-Apr-24 09:30N 55°14' E 013°54'1010.7
2016-Apr-24 08:33N 55°14' E 014°12'10 9.8
2016-Apr-24 07:33N 55°20' E 014°25'1110.7
2016-Apr-24 06:33N 55°28' E 014°38'1110.5
2016-Apr-24 05:33N 55°33' E 014°54'1010.4
2016-Apr-24 04:33N 55°38' E 015°10'1110.5
2016-Apr-24 03:33N 55°44' E 015°26'  

Dump ship's entire track history